createdAt,value
2022-11-24T00:00:30.845Z,101320.66
2022-11-24T00:05:38.702Z,101328.66
2022-11-24T00:10:41.819Z,101319.03
2022-11-24T00:15:44.928Z,101340.31
2022-11-24T00:20:54.097Z,101309.84
2022-11-24T00:26:13.508Z,101309.06
2022-11-24T00:31:28.058Z,101303.22
2022-11-24T00:36:33.257Z,101326.00
2022-11-24T00:41:36.343Z,101325.41
2022-11-24T00:46:39.654Z,101363.22
2022-11-24T00:51:43.118Z,101338.72
2022-11-24T00:56:46.318Z,101331.88
2022-11-24T01:01:49.470Z,101360.94
2022-11-24T01:06:52.773Z,101338.09
2022-11-24T01:12:01.886Z,101339.72
2022-11-24T01:17:05.045Z,101298.66
2022-11-24T01:22:08.414Z,101330.06
2022-11-24T01:27:11.781Z,101325.22
2022-11-24T01:32:14.834Z,101324.72
2022-11-24T01:37:17.941Z,101315.75
2022-11-24T01:42:21.053Z,101308.66
2022-11-24T01:47:36.847Z,101366.56
2022-11-24T01:52:49.967Z,101346.34
2022-11-24T01:57:57.889Z,101307.59
2022-11-24T02:03:01.140Z,101367.03
2022-11-24T02:08:06.681Z,101367.84
2022-11-24T02:13:10.120Z,101367.09
2022-11-24T02:18:13.539Z,101344.75
2022-11-24T02:23:49.077Z,101342.22
2022-11-24T02:28:53.129Z,101352.97
2022-11-24T02:33:56.506Z,101327.41
2022-11-24T02:38:59.758Z,101368.28
2022-11-24T02:44:03.086Z,101364.91
2022-11-24T02:49:06.348Z,101355.34
2022-11-24T02:54:09.544Z,101361.59
2022-11-24T02:59:12.609Z,101334.56
2022-11-24T03:04:15.760Z,101369.06
2022-11-24T03:09:18.976Z,101378.38
2022-11-24T03:14:22.077Z,101358.84
2022-11-24T03:19:25.433Z,101365.44
2022-11-24T03:24:28.548Z,101384.47
2022-11-24T03:29:31.983Z,101388.72
2022-11-24T03:34:35.375Z,101398.56
2022-11-24T03:39:38.768Z,101387.94
2022-11-24T03:44:41.936Z,101370.78
2022-11-24T03:49:45.319Z,101373.53
2022-11-24T03:54:48.497Z,101387.72
2022-11-24T03:59:51.607Z,101385.72
2022-11-24T04:04:54.671Z,101397.19
2022-11-24T04:09:57.750Z,101358.84
2022-11-24T04:15:00.788Z,101403.72
2022-11-24T04:20:04.317Z,101368.81
2022-11-24T04:25:08.376Z,101348.47
2022-11-24T04:30:11.734Z,101391.88
2022-11-24T04:35:15.110Z,101390.31
2022-11-24T04:40:18.344Z,101407.91
2022-11-24T04:45:21.854Z,101386.75
2022-11-24T04:50:25.107Z,101410.84
2022-11-24T04:55:28.131Z,101436.09
2022-11-24T05:00:31.072Z,101456.50
2022-11-24T05:05:34.014Z,101446.84
2022-11-24T05:10:37.035Z,101406.94
2022-11-24T05:15:42.149Z,101475.81
2022-11-24T05:20:45.207Z,101462.72
2022-11-24T05:25:48.193Z,101436.63
2022-11-24T05:30:51.587Z,101484.81
2022-11-24T05:35:54.918Z,101495.28
2022-11-24T05:41:05.641Z,101503.66
2022-11-24T05:46:08.642Z,101508.53
2022-11-24T05:51:11.578Z,101512.81
2022-11-24T05:56:14.610Z,101521.94
2022-11-24T06:01:17.636Z,101512.66
2022-11-24T06:06:20.669Z,101544.72
2022-11-24T06:11:23.627Z,101554.78
2022-11-24T06:16:26.851Z,101555.53
2022-11-24T06:21:30.452Z,101530.66
2022-11-24T06:26:33.410Z,101563.03
2022-11-24T06:31:36.636Z,101540.88
2022-11-24T06:36:40.323Z,101529.28
2022-11-24T06:41:43.290Z,101549.22
2022-11-24T06:46:46.379Z,101570.78
2022-11-24T06:51:49.740Z,101560.31
2022-11-24T06:56:57.591Z,101580.03
2022-11-24T07:02:00.587Z,101573.88
2022-11-24T07:07:03.586Z,101545.78
2022-11-24T07:12:06.857Z,101570.63
2022-11-24T07:17:10.455Z,101571.78
2022-11-24T07:22:13.423Z,101581.53
2022-11-24T07:27:16.468Z,101584.47
2022-11-24T07:32:19.768Z,101598.25
2022-11-24T07:37:25.563Z,101564.56
2022-11-24T07:42:32.675Z,101586.28
2022-11-24T07:47:39.526Z,101557.09
2022-11-24T07:52:42.576Z,101601.50
2022-11-24T07:57:45.678Z,101592.81
2022-11-24T08:02:48.617Z,101591.34
2022-11-24T08:07:51.705Z,101555.94
2022-11-24T08:12:54.665Z,101570.81
2022-11-24T08:18:01.884Z,101575.97
2022-11-24T08:23:05.256Z,101543.97
2022-11-24T08:28:08.221Z,101549.13
2022-11-24T08:33:13.144Z,101528.53
2022-11-24T08:38:17.646Z,101564.88
2022-11-24T08:43:20.618Z,101552.72
2022-11-24T08:48:39.309Z,101569.63
2022-11-24T08:53:42.756Z,101535.53
2022-11-24T08:58:45.883Z,101573.72
2022-11-24T09:03:51.155Z,101572.19
2022-11-24T09:08:55.964Z,101523.38
2022-11-24T09:13:59.025Z,101551.78
2022-11-24T09:19:04.258Z,101545.56
2022-11-24T09:24:08.183Z,101530.72
2022-11-24T09:29:11.312Z,101525.97
2022-11-24T09:34:16.044Z,101509.38
2022-11-24T09:39:19.031Z,101533.28
2022-11-24T09:44:46.738Z,101549.94
2022-11-24T09:50:03.562Z,101517.97
2022-11-24T09:55:17.210Z,101524.75
2022-11-24T10:00:20.397Z,101514.91
2022-11-24T10:05:27.844Z,101543.53
2022-11-24T10:10:55.049Z,101554.03
2022-11-24T10:16:10.200Z,101529.50
2022-11-24T10:21:48.758Z,101537.19
2022-11-24T10:27:02.101Z,101530.94
2022-11-24T10:32:27.634Z,101543.91
2022-11-24T10:37:41.060Z,101479.22
2022-11-24T10:42:44.148Z,101551.34
2022-11-24T10:47:47.284Z,101549.75
2022-11-24T10:53:10.427Z,101543.47
2022-11-24T10:58:17.722Z,101545.22
2022-11-24T11:03:25.586Z,101524.06
2022-11-24T11:08:30.712Z,101554.59
2022-11-24T11:13:33.671Z,101554.88
2022-11-24T11:18:37.807Z,101536.16
2022-11-24T11:23:45.108Z,101540.72
2022-11-24T11:34:37.075Z,101545.50
2022-11-24T11:39:48.622Z,101525.47
2022-11-24T11:44:58.250Z,101531.09
2022-11-24T11:50:01.344Z,101537.66
2022-11-24T11:55:34.938Z,101533.53
2022-11-24T12:00:46.357Z,101532.50
2022-11-24T12:06:15.640Z,101521.53
2022-11-24T12:11:43.708Z,101538.78
2022-11-24T12:16:59.102Z,101555.44
2022-11-24T12:22:22.819Z,101560.34
2022-11-24T12:27:28.898Z,101555.88
2022-11-24T12:32:57.932Z,101574.63
2022-11-24T12:38:19.517Z,101576.59
2022-11-24T12:43:32.966Z,101574.38
2022-11-24T12:48:47.741Z,101573.91
2022-11-24T12:53:53.989Z,101567.13
2022-11-24T12:59:11.862Z,101570.78
2022-11-24T13:04:40.434Z,101562.28
2022-11-24T13:10:30.146Z,101575.69
2022-11-24T13:21:48.312Z,101529.06
2022-11-24T13:26:54.602Z,101585.44
2022-11-24T13:32:03.519Z,101575.44
2022-11-24T13:37:35.151Z,101566.47
2022-11-24T13:43:03.185Z,101561.94
2022-11-24T13:48:21.878Z,101577.00
2022-11-24T13:53:49.241Z,101579.03
2022-11-24T13:59:03.450Z,101582.22
2022-11-24T14:04:33.840Z,101580.53
2022-11-24T14:09:52.171Z,101561.25
2022-11-24T14:15:24.766Z,101584.88
2022-11-24T14:20:28.725Z,101552.34
2022-11-24T14:25:32.746Z,101605.03
2022-11-24T14:30:35.695Z,101615.00
2022-11-24T14:35:44.948Z,101610.25
2022-11-24T14:40:54.111Z,101627.38
2022-11-24T14:46:09.547Z,101613.66
2022-11-24T14:51:20.396Z,101616.81
2022-11-24T14:56:36.523Z,101618.84
2022-11-24T15:01:41.918Z,101608.94
2022-11-24T15:07:21.951Z,101623.84
2022-11-24T15:12:30.862Z,101629.53
2022-11-24T15:17:34.412Z,101654.31
2022-11-24T15:22:40.490Z,101660.03
2022-11-24T15:27:43.425Z,101653.84
2022-11-24T15:33:14.460Z,101676.91
2022-11-24T15:38:17.886Z,101679.53
2022-11-24T15:43:36.816Z,101671.47
2022-11-24T15:48:40.153Z,101630.00
2022-11-24T15:53:51.166Z,101659.25
2022-11-24T15:58:55.412Z,101671.88
2022-11-24T16:03:58.464Z,101664.78
2022-11-24T16:09:01.901Z,101672.72
2022-11-24T16:14:04.976Z,101675.66
2022-11-24T16:19:09.724Z,101693.34
2022-11-24T16:24:12.819Z,101683.13
2022-11-24T16:29:15.803Z,101668.81
2022-11-24T16:34:18.807Z,101690.13
2022-11-24T16:39:21.813Z,101668.41
2022-11-24T16:44:24.826Z,101688.88
2022-11-24T16:49:27.762Z,101685.66
2022-11-24T16:54:31.703Z,101696.06
2022-11-24T16:59:35.077Z,101674.75
2022-11-24T17:04:38.089Z,101693.38
2022-11-24T17:09:41.070Z,101646.56
2022-11-24T17:14:49.143Z,101674.81
2022-11-24T17:20:07.545Z,101670.09
2022-11-24T17:25:10.723Z,101690.50
2022-11-24T17:30:14.107Z,101678.38
2022-11-24T17:35:18.046Z,101640.75
2022-11-24T17:40:28.519Z,101674.28
2022-11-24T17:45:32.329Z,101681.75
2022-11-24T17:50:35.371Z,101694.63
2022-11-24T17:55:38.627Z,101696.34
2022-11-24T18:00:41.628Z,101708.69
2022-11-24T18:05:44.861Z,101706.31
2022-11-24T18:10:47.899Z,101707.56
2022-11-24T18:15:50.830Z,101712.56
2022-11-24T18:20:58.824Z,101678.31
2022-11-24T18:26:04.373Z,101726.28
2022-11-24T18:31:10.451Z,101731.75
2022-11-24T18:36:16.830Z,101729.91
2022-11-24T18:41:20.284Z,101742.78
2022-11-24T18:46:23.416Z,101742.25
2022-11-24T18:51:27.420Z,101712.19
2022-11-24T18:56:30.694Z,101717.84
2022-11-24T19:01:33.764Z,101718.53
2022-11-24T19:06:38.318Z,101752.75
2022-11-24T19:11:43.496Z,101718.03
2022-11-24T19:16:50.590Z,101699.31
2022-11-24T19:21:53.530Z,101756.97
2022-11-24T19:26:57.070Z,101737.28
2022-11-24T19:32:00.037Z,101728.50
2022-11-24T19:37:03.107Z,101754.75
2022-11-24T19:42:06.147Z,101769.56
2022-11-24T19:47:09.487Z,101764.78
2022-11-24T19:52:12.499Z,101724.09
2022-11-24T19:57:15.595Z,101761.03
2022-11-24T20:02:18.682Z,101747.09
2022-11-24T20:07:21.743Z,101771.63
2022-11-24T20:12:24.757Z,101732.44
2022-11-24T20:17:30.514Z,101751.09
2022-11-24T20:22:33.509Z,101753.69
2022-11-24T20:27:36.482Z,101724.84
2022-11-24T20:32:39.462Z,101757.41
2022-11-24T20:37:42.581Z,101749.84
2022-11-24T20:42:45.545Z,101781.91
2022-11-24T20:47:48.808Z,101771.66
2022-11-24T20:52:51.735Z,101771.59
2022-11-24T20:57:54.712Z,101763.78
2022-11-24T21:02:58.802Z,101761.69
2022-11-24T21:08:01.778Z,101759.28
2022-11-24T21:13:04.801Z,101725.50
2022-11-24T21:18:07.808Z,101771.34
2022-11-24T21:23:11.040Z,101770.44
2022-11-24T21:28:14.018Z,101758.91
2022-11-24T21:33:17.367Z,101727.53
2022-11-24T21:38:20.327Z,101738.53
2022-11-24T21:43:23.259Z,101749.94
2022-11-24T21:48:26.337Z,101736.53
2022-11-24T21:53:34.724Z,101754.13
2022-11-24T21:58:37.705Z,101761.00
2022-11-24T22:03:41.741Z,101762.34
2022-11-24T22:08:44.732Z,101753.38
2022-11-24T22:13:48.410Z,101730.56
2022-11-24T22:18:51.704Z,101731.09
2022-11-24T22:23:54.622Z,101734.50
2022-11-24T22:28:58.524Z,101732.94
2022-11-24T22:34:01.552Z,101758.81
2022-11-24T22:39:06.014Z,101759.59
2022-11-24T22:44:09.093Z,101750.19
2022-11-24T22:49:12.421Z,101721.81
2022-11-24T22:54:15.355Z,101759.44
2022-11-24T22:59:18.325Z,101764.38
2022-11-24T23:04:21.333Z,101748.28
2022-11-24T23:09:24.376Z,101751.47
2022-11-24T23:14:29.031Z,101738.56
2022-11-24T23:19:32.211Z,101734.31
2022-11-24T23:24:38.411Z,101749.63
2022-11-24T23:29:41.342Z,101755.41
2022-11-24T23:34:44.552Z,101740.00
2022-11-24T23:39:48.252Z,101757.78
2022-11-24T23:44:51.183Z,101766.13
2022-11-24T23:49:54.364Z,101759.63
2022-11-24T23:54:57.440Z,101792.22
